Phoenix, AZ (85014)

8:08 AM MST on August 22, 2014 (GMT -0700)
North Central Phoenix | Change Station
CLOSE
Current Station
Personal Weather Station
Location: Phoenix, AZ
Elevation: 1155 ft
Nearby Weather Stations

Elev 1155 ft 33.52 °N, 112.08 °W | Updated 5 seconds ago

Mostly Cloudy
Mostly Cloudy
75.6 °F
Feels Like 77 °F
N
0.0
Wind Variable Wind from SE
Gusts 1.0 mph

Today
High -- | Low -- °F
--% Chance of Precip.
Yesterday
High -- | Low -- °F
Precip. -- in
5:55 AM 7:06 PM
Waning Crescent, 8% visible
Pressure 29.94 in
Visibility 10.0 miles
Clouds Scattered Clouds 10000 ft
Mostly Cloudy 15000 ft
Heat Index 77 °F
Dew Point 69 °F
Humidity 79%
Rainfall 0.00 in
Snow Depth Not available.
UV 1 out of 12
Pollen 4.30 out of 12
PM2.5 Good
Flu Activity Not available.
METAR KPHX 221451Z 00000KT 10SM SCT100 BKN150 24/18 A2998 RMK AO2 SLP136 VCSH NW T02440183 51013

More Conditions Fewer Conditions

Pressure 29.94 in
Visibility 10.0 miles
Clouds Scattered Clouds 10000 ft
Mostly Cloudy 15000 ft
Heat Index 77 °F
Dew Point 69 °F
Humidity 79%
Rainfall 0.00 in
Snow Depth Not available.
UV 1 out of 12
Pollen 4.30 out of 12
PM2.5 Good
Flu Activity Not available.
METAR KPHX 221451Z 00000KT 10SM SCT100 BKN150 24/18 A2998 RMK AO2 SLP136 VCSH NW T02440183 51013

More Conditions Fewer Conditions

10-Day Weather Forecast

Almanac

Astronomy

Aug. 22, 2014 Rise Set
Actual Time 5:55 AM MST 7:06 PM MST
Civil Twilight 5:29 AM MST 7:31 PM MST
Nautical Twilight 4:58 AM MST 8:02 PM MST
Astronomical Twilight 4:26 AM MST 8:34 PM MST
Moon 3:24 AM MST 5:14 PM MST
Length of Visible Light 14h 02m
Length of Day
13h 10m
Tomorrow will be 1m 54s shorter.
Waning Crescent, 8% of the Moon is Illuminated
Today
Waning Crescent
Aug 25
New
Sep 2
First Quarter
Sep 8
Full
Sep 15
Last Quarter

Today's Extremes

State Highs State Lows

Community

WunderPhotos

Upload Photos

1,746,185 photos uploaded!

WunderBlogs® & News

Nearby

Air Quality

  Air Quality AQ Index Pollutant
Yesterday Good
OZONE
Yesterday Good
PM10
Current Good
PM2.5
Friday Moderate
OZONE
Friday Good
PM10
Friday Good
CO
Saturday Moderate
OZONE
Saturday Good
PM10
Saturday Good
CO

Snow Depth

Station Depth Elevation
Workman Creek 1 in 6900 ft
Promontory 0 in 7930 ft
Happy Jack 0 in 7630 ft
Mormon Mountain 0 in 7500 ft
White Horse Lake 0 in 7180 ft

Earthquake Activity

City Distance Mag. Time & Date
No recent earthquake activity has been reported nearby.
Minimum magnitude displayed is 2.5.

Coastal Water Temperatures

Place Temperature
No Stations Reporting

Nearby Weather Stations